Time;durP1;ratioP1;P1;durP2;ratioP2;P2;SDS_P1;SDS_P2;PMS_P1;PMS_P2;Temp;Humidity;BMP_temperature;BMP_pressure;BME280_temperature;BME280_humidity;BME280_pressure;Samples;Min_cycle;Max_cycle;Signal;HPM_P1;HPM_P2
2022/04/19 00:00:46;;;;;;;8.30;4.97;;;11.30;48.00;;;;;;9184264;19;20439;-65
2022/04/19 00:03:54;;;;;;;9.23;4.60;;;11.30;48.10;;;;;;9183634;19;20011;-64
2022/04/19 00:06:59;;;;;;;9.57;5.50;;;11.20;48.20;;;;;;9183282;19;20351;-64
2022/04/19 00:10:08;;;;;;;8.57;5.13;;;11.20;48.20;;;;;;9181109;19;20097;-65
2022/04/19 00:13:15;;;;;;;8.95;5.07;;;11.10;48.20;;;;;;9182999;19;20006;-65
2022/04/19 00:16:20;;;;;;;9.25;5.32;;;11.10;48.40;;;;;;9180704;19;20021;-65
2022/04/19 00:19:28;;;;;;;9.75;5.25;;;11.00;48.40;;;;;;9178155;19;20018;-64
2022/04/19 00:22:33;;;;;;;10.57;5.80;;;10.90;48.50;;;;;;9180618;19;20021;-64
2022/04/19 00:25:38;;;;;;;9.23;5.53;;;10.90;48.60;;;;;;9180123;19;20010;-65
2022/04/19 00:28:43;;;;;;;10.15;5.47;;;10.80;48.60;;;;;;9179255;19;20018;-64
2022/04/19 00:31:48;;;;;;;8.75;5.30;;;10.80;48.70;;;;;;9176309;19;20014;-65
2022/04/19 00:34:56;;;;;;;11.68;5.90;;;10.70;48.70;;;;;;9181573;19;20368;-65
2022/04/19 00:38:01;;;;;;;11.85;6.43;;;10.70;48.90;;;;;;9180957;19;20559;-65
2022/04/19 00:41:06;;;;;;;8.88;5.78;;;10.60;48.90;;;;;;9182146;19;20026;-64
2022/04/19 00:44:11;;;;;;;10.82;5.93;;;10.60;49.00;;;;;;9180525;19;20021;-64
2022/04/19 00:47:16;;;;;;;13.70;6.35;;;10.50;49.10;;;;;;9181514;19;20037;-65
2022/04/19 00:50:24;;;;;;;10.70;6.03;;;10.50;49.20;;;;;;9189613;19;20026;-65
2022/04/19 00:53:30;;;;;;;10.38;5.68;;;10.40;49.30;;;;;;9190884;19;20074;-65
2022/04/19 00:56:37;;;;;;;11.55;6.78;;;10.40;49.30;;;;;;9188669;19;20024;-63
2022/04/19 00:59:43;;;;;;;13.82;6.75;;;10.40;49.40;;;;;;9188700;19;20559;-63
2022/04/19 01:02:48;;;;;;;12.73;5.93;;;10.30;49.50;;;;;;9187822;19;20026;-64
2022/04/19 01:05:59;;;;;;;11.35;6.80;;;10.20;49.60;;;;;;9189353;19;20011;-64
2022/04/19 01:09:04;;;;;;;9.65;5.53;;;10.20;49.60;;;;;;9184911;19;20082;-64
2022/04/19 01:15:29;;;;;;;10.38;6.00;;;10.10;49.70;;;;;;9187746;19;20010;-64
2022/04/19 01:18:45;;;;;;;12.25;6.85;;;10.10;49.80;;;;;;9185487;19;20027;-65
2022/04/19 01:21:54;;;;;;;10.82;6.60;;;10.00;49.80;;;;;;9189128;19;20418;-64
2022/04/19 01:25:08;;;;;;;12.52;6.60;;;10.00;49.90;;;;;;9188284;19;20010;-64
2022/04/19 01:28:13;;;;;;;11.48;6.85;;;10.00;50.10;;;;;;9189317;19;20046;-65
2022/04/19 01:31:19;;;;;;;10.05;6.68;;;9.90;50.00;;;;;;9181906;19;20033;-65
2022/04/19 01:34:27;;;;;;;11.23;6.53;;;9.80;50.10;;;;;;9188039;19;20100;-64
2022/04/19 01:37:40;;;;;;;11.00;6.93;;;9.80;50.20;;;;;;9186569;19;20047;-65
2022/04/19 01:40:45;;;;;;;14.25;7.63;;;9.80;50.30;;;;;;9186966;19;20107;-64
2022/04/19 01:44:04;;;;;;;14.90;7.80;;;9.70;50.30;;;;;;9187583;19;20010;-64
2022/04/19 01:47:10;;;;;;;11.60;6.70;;;9.70;50.40;;;;;;9187171;19;20018;-65
2022/04/19 01:50:24;;;;;;;10.18;6.60;;;9.60;50.40;;;;;;9186881;19;20014;-65
2022/04/19 01:53:32;;;;;;;12.90;7.30;;;9.60;50.50;;;;;;9187191;19;20522;-64
2022/04/19 01:56:37;;;;;;;12.90;7.95;;;9.60;50.60;;;;;;9185517;19;20015;-65
2022/04/19 01:59:50;;;;;;;12.63;7.65;;;9.50;50.70;;;;;;9177730;19;20018;-65
2022/04/19 02:03:03;;;;;;;10.63;6.50;;;9.50;50.70;;;;;;9181799;19;20011;-64
2022/04/19 02:06:10;;;;;;;13.70;6.32;;;9.40;50.80;;;;;;9183009;19;20025;-64
2022/04/19 02:09:19;;;;;;;11.23;6.80;;;9.40;50.90;;;;;;9179787;19;20018;-64
2022/04/19 02:12:24;;;;;;;10.75;6.43;;;9.30;51.00;;;;;;9185341;19;20006;-64
2022/04/19 02:15:41;;;;;;;10.55;6.47;;;9.30;51.10;;;;;;9184948;19;20022;-63
2022/04/19 02:18:59;;;;;;;10.75;7.15;;;9.30;51.10;;;;;;9184284;19;20018;-64
2022/04/19 02:22:06;;;;;;;11.30;7.22;;;9.20;51.20;;;;;;9187151;19;20014;-63
2022/04/19 02:25:15;;;;;;;15.88;7.47;;;9.20;51.30;;;;;;9186117;19;20459;-63
2022/04/19 02:28:21;;;;;;;13.05;7.00;;;9.20;51.40;;;;;;9185040;19;20029;-64
2022/04/19 02:31:38;;;;;;;15.80;7.93;;;9.10;51.40;;;;;;9181144;19;20086;-64
2022/04/19 02:34:43;;;;;;;15.02;7.55;;;9.10;51.50;;;;;;9187966;19;20018;-64
2022/04/19 02:37:52;;;;;;;14.00;7.35;;;9.00;51.50;;;;;;9185381;19;20120;-64
2022/04/19 02:41:04;;;;;;;11.95;7.30;;;9.00;51.60;;;;;;9182766;19;20022;-64
2022/04/19 02:44:10;;;;;;;13.45;7.53;;;9.00;51.70;;;;;;9185305;19;20006;-64
2022/04/19 02:47:19;;;;;;;14.30;7.65;;;8.90;51.60;;;;;;9183938;19;20026;-64
2022/04/19 02:50:24;;;;;;;15.15;8.32;;;8.90;51.80;;;;;;9183376;19;20034;-63
2022/04/19 02:53:29;;;;;;;12.30;7.40;;;8.80;51.70;;;;;;9184027;19;20349;-64
2022/04/19 02:56:37;;;;;;;15.15;8.45;;;8.80;51.80;;;;;;9182997;19;20363;-63
2022/04/19 02:59:43;;;;;;;13.63;7.88;;;8.70;51.90;;;;;;9182210;19;20051;-65
2022/04/19 03:02:49;;;;;;;14.05;7.57;;;8.70;51.90;;;;;;9184947;19;20103;-64
2022/04/19 03:05:56;;;;;;;12.75;7.63;;;8.60;52.00;;;;;;9183816;19;20437;-64
2022/04/19 03:09:03;;;;;;;18.95;7.72;;;8.60;52.00;;;;;;9181967;19;20081;-63
2022/04/19 03:12:14;;;;;;;20.77;9.60;;;8.60;52.20;;;;;;9180720;19;20014;-64
2022/04/19 03:15:34;;;;;;;14.57;8.85;;;8.50;52.30;;;;;;9184961;19;20439;-64
2022/04/19 03:18:39;;;;;;;16.17;8.35;;;8.50;52.30;;;;;;9182732;19;20509;-64
2022/04/19 03:21:44;;;;;;;11.93;7.78;;;8.50;52.40;;;;;;9183807;19;20033;-63
2022/04/19 03:28:12;;;;;;;15.68;8.50;;;8.40;52.50;;;;;;9182554;19;20073;-66
2022/04/19 03:31:19;;;;;;;16.85;8.25;;;8.40;52.60;;;;;;9177976;19;20014;-64
2022/04/19 03:34:25;;;;;;;13.98;8.32;;;8.30;52.60;;;;;;9183775;19;20011;-63
2022/04/19 03:37:31;;;;;;;16.10;7.80;;;8.30;52.70;;;;;;9181348;19;20015;-63
2022/04/19 03:40:36;;;;;;;15.07;7.85;;;8.30;52.80;;;;;;9179475;19;20019;-63
2022/04/19 03:43:44;;;;;;;13.10;7.65;;;8.20;52.80;;;;;;9181743;19;20010;-63
2022/04/19 03:50:10;;;;;;;17.00;8.13;;;8.20;53.00;;;;;;9180692;19;20018;-64
2022/04/19 03:53:15;;;;;;;14.70;8.73;;;8.10;53.00;;;;;;9182152;19;20017;-64
2022/04/19 03:56:22;;;;;;;13.07;8.07;;;8.10;53.00;;;;;;9181832;19;20014;-63
2022/04/19 03:59:29;;;;;;;14.20;8.60;;;8.10;53.20;;;;;;9181335;19;20018;-63
2022/04/19 04:02:35;;;;;;;19.17;8.23;;;8.00;53.20;;;;;;9184110;19;20459;-64
2022/04/19 04:05:40;;;;;;;16.55;8.88;;;8.00;53.30;;;;;;9181007;19;20462;-64
2022/04/19 04:08:45;;;;;;;15.02;8.50;;;8.00;53.40;;;;;;9179779;19;20028;-63
2022/04/19 04:11:50;;;;;;;23.48;9.52;;;7.90;53.50;;;;;;9182362;19;20029;-65
2022/04/19 04:15:00;;;;;;;18.08;9.40;;;7.90;53.60;;;;;;9180975;19;20082;-64
2022/04/19 04:18:06;;;;;;;21.35;9.23;;;7.90;53.70;;;;;;9181595;19;20022;-63
2022/04/19 04:21:11;;;;;;;18.98;9.73;;;7.90;53.80;;;;;;9178382;19;20444;-64
2022/04/19 04:24:16;;;;;;;16.77;9.23;;;7.80;53.80;;;;;;9187275;19;20011;-63
2022/04/19 04:27:22;;;;;;;18.60;9.20;;;7.80;53.90;;;;;;9189835;19;20018;-63
2022/04/19 04:30:29;;;;;;;19.92;9.50;;;7.80;53.90;;;;;;9185293;19;20011;-63
2022/04/19 04:33:37;;;;;;;21.42;9.82;;;7.80;54.00;;;;;;9189590;19;20010;-63
2022/04/19 04:36:43;;;;;;;19.73;11.55;;;7.70;54.00;;;;;;9188699;19;20018;-64
2022/04/19 04:39:53;;;;;;;22.90;10.57;;;7.70;54.00;;;;;;9188710;19;20043;-63
2022/04/19 04:43:04;;;;;;;21.77;10.75;;;7.60;54.10;;;;;;9190615;19;20582;-63
2022/04/19 04:49:39;;;;;;;22.08;10.95;;;7.60;54.30;;;;;;9189837;19;20014;-63
2022/04/19 04:52:52;;;;;;;16.42;9.40;;;7.60;54.30;;;;;;9188905;19;20014;-64
2022/04/19 04:55:58;;;;;;;22.55;11.30;;;7.50;54.30;;;;;;9188592;19;20432;-64
2022/04/19 04:59:05;;;;;;;22.40;12.40;;;7.50;54.30;;;;;;9190916;19;20033;-62
2022/04/19 05:02:12;;;;;;;20.90;10.38;;;7.50;54.40;;;;;;9190632;19;20014;-63
2022/04/19 05:05:18;;;;;;;19.77;10.20;;;7.50;54.60;;;;;;9185792;19;20018;-63
2022/04/19 05:08:23;;;;;;;22.73;10.90;;;7.50;54.60;;;;;;9187309;19;20018;-64
2022/04/19 05:11:29;;;;;;;20.88;10.68;;;7.50;54.70;;;;;;9187334;19;20055;-63
2022/04/19 05:14:34;;;;;;;23.27;11.70;;;7.50;54.70;;;;;;9184164;19;20014;-63
2022/04/19 05:17:42;;;;;;;20.02;10.93;;;7.50;54.80;;;;;;9186919;19;20037;-62
2022/04/19 05:20:47;;;;;;;21.10;9.85;;;7.50;54.90;;;;;;9185943;19;20047;-63
2022/04/19 05:23:53;;;;;;;19.95;10.68;;;7.50;54.90;;;;;;9185914;19;20019;-64
2022/04/19 05:27:01;;;;;;;21.35;10.90;;;7.50;54.90;;;;;;9187164;19;20094;-64
2022/04/19 05:30:08;;;;;;;23.95;10.48;;;7.50;54.90;;;;;;9182516;19;20348;-64
2022/04/19 05:33:16;;;;;;;20.20;10.52;;;7.50;55.00;;;;;;9188145;19;20022;-63
2022/04/19 05:36:22;;;;;;;18.38;10.55;;;7.50;55.10;;;;;;9187370;19;20047;-66
2022/04/19 05:39:28;;;;;;;22.40;10.93;;;7.60;55.10;;;;;;9186483;19;20014;-63
2022/04/19 05:42:33;;;;;;;20.05;10.75;;;7.60;55.10;;;;;;9186951;19;20021;-64
2022/04/19 05:45:39;;;;;;;20.52;10.40;;;7.60;55.20;;;;;;9186926;19;20467;-64
2022/04/19 05:48:48;;;;;;;19.10;9.60;;;7.70;55.30;;;;;;9182965;19;20022;-64
2022/04/19 05:51:54;;;;;;;16.33;9.93;;;7.80;55.60;;;;;;9178679;19;20023;-66
2022/04/19 05:54:59;;;;;;;19.40;10.35;;;7.90;55.60;;;;;;9178638;19;20022;-64
2022/04/19 05:58:04;;;;;;;20.27;10.45;;;8.00;55.80;;;;;;9180544;19;20018;-64
2022/04/19 06:01:09;;;;;;;20.15;9.70;;;8.20;55.90;;;;;;9178979;19;20022;-65
2022/04/19 06:07:46;;;;;;;18.30;9.70;;;8.60;56.10;;;;;;9185637;19;20074;-64
2022/04/19 06:10:52;;;;;;;27.75;10.60;;;8.80;56.10;;;;;;9185096;19;20010;-64
2022/04/19 06:13:57;;;;;;;18.83;9.68;;;9.00;56.10;;;;;;9186266;19;20014;-64
2022/04/19 06:17:02;;;;;;;17.17;9.70;;;9.30;56.30;;;;;;9180229;19;20018;-65
2022/04/19 06:20:12;;;;;;;15.88;9.05;;;9.50;56.30;;;;;;9175558;19;20018;-65
2022/04/19 06:23:19;;;;;;;15.48;8.98;;;9.80;56.60;;;;;;9166779;19;20018;-64
2022/04/19 06:26:24;;;;;;;29.15;9.27;;;10.00;56.30;;;;;;9169943;19;20481;-64
2022/04/19 06:29:35;;;;;;;19.42;9.45;;;10.30;56.30;;;;;;9172534;19;20018;-65
2022/04/19 06:32:42;;;;;;;15.77;8.98;;;10.60;56.30;;;;;;9171161;19;20991;-65
2022/04/19 06:35:50;;;;;;;15.95;8.43;;;10.80;56.10;;;;;;9173536;19;20017;-66
2022/04/19 06:38:56;;;;;;;18.95;9.52;;;11.10;56.10;;;;;;9174355;19;20018;-65
2022/04/19 06:42:01;;;;;;;15.75;8.77;;;11.30;55.90;;;;;;9174857;19;20018;-66
2022/04/19 06:45:21;;;;;;;23.42;8.90;;;11.60;55.90;;;;;;9174530;19;20022;-66
2022/04/19 06:48:29;;;;;;;17.13;8.73;;;11.80;55.80;;;;;;9177788;19;20486;-66
2022/04/19 06:51:37;;;;;;;15.23;8.70;;;12.00;55.60;;;;;;9180418;19;20019;-66
2022/04/19 06:54:46;;;;;;;14.57;8.52;;;12.20;55.50;;;;;;9184032;19;20114;-65
2022/04/19 06:57:52;;;;;;;16.73;8.38;;;12.50;55.40;;;;;;9182615;19;20006;-65
2022/04/19 07:00:57;;;;;;;14.80;8.18;;;12.60;55.30;;;;;;9181946;19;20015;-66
2022/04/19 07:04:03;;;;;;;14.88;8.68;;;12.80;55.20;;;;;;9184566;19;20374;-67
2022/04/19 07:07:15;;;;;;;13.40;7.20;;;13.10;55.10;;;;;;9183355;19;20038;-67
2022/04/19 07:10:22;;;;;;;17.02;8.07;;;13.30;55.00;;;;;;9184389;19;20022;-67
2022/04/19 07:13:40;;;;;;;15.73;8.75;;;13.50;54.80;;;;;;9183779;19;20015;-67
2022/04/19 07:16:46;;;;;;;13.38;8.00;;;13.70;54.70;;;;;;9183370;19;20018;-67
2022/04/19 07:26:41;;;;;;;12.93;7.47;;;14.20;54.20;;;;;;9181935;19;20428;-66
2022/04/19 07:29:49;;;;;;;16.98;8.70;;;14.40;54.30;;;;;;9181635;19;20376;-68
2022/04/19 07:32:54;;;;;;;20.40;7.72;;;14.60;54.20;;;;;;9182685;19;20048;-67
2022/04/19 07:36:03;;;;;;;14.73;7.18;;;14.70;54.00;;;;;;9181602;19;20424;-65
2022/04/19 07:39:11;;;;;;;14.10;7.70;;;14.80;53.80;;;;;;9183144;19;20022;-67
2022/04/19 07:42:19;;;;;;;17.20;8.65;;;15.00;53.60;;;;;;9181447;19;20027;-67
2022/04/19 07:45:24;;;;;;;12.73;6.65;;;15.20;53.60;;;;;;9182560;19;20014;-68
2022/04/19 07:48:29;;;;;;;13.27;7.60;;;15.30;53.40;;;;;;9182197;19;20006;-68
2022/04/19 07:51:35;;;;;;;14.55;7.80;;;15.40;53.20;;;;;;9181043;19;20011;-65
2022/04/19 07:54:48;;;;;;;18.13;8.05;;;15.60;53.10;;;;;;9180850;19;20015;-64
2022/04/19 07:57:54;;;;;;;18.23;8.73;;;15.70;53.10;;;;;;9179749;19;20403;-70
2022/04/19 08:00:59;;;;;;;13.32;7.38;;;15.80;53.00;;;;;;9181847;19;20037;-70
2022/04/19 08:04:10;;;;;;;13.88;7.05;;;16.00;52.90;;;;;;9182083;19;20051;-69
2022/04/19 08:07:21;;;;;;;13.55;7.57;;;16.10;52.70;;;;;;9181487;19;20026;-69
2022/04/19 08:10:30;;;;;;;14.90;8.07;;;16.30;52.70;;;;;;9180610;19;20010;-71
2022/04/19 08:13:43;;;;;;;15.00;7.70;;;16.40;52.60;;;;;;9181458;19;20014;-72
2022/04/19 08:16:53;;;;;;;12.85;6.65;;;16.50;52.50;;;;;;9182551;19;20476;-71
2022/04/19 08:19:59;;;;;;;14.80;7.00;;;16.60;52.40;;;;;;9180511;19;20047;-70
2022/04/19 08:23:14;;;;;;;15.52;7.22;;;16.80;52.30;;;;;;9173892;19;20329;-69
2022/04/19 08:26:24;;;;;;;12.02;6.72;;;17.00;52.20;;;;;;9176399;19;20041;-70
2022/04/19 08:29:34;;;;;;;10.68;5.75;;;17.20;52.00;;;;;;9180882;19;20067;-71
2022/04/19 08:32:42;;;;;;;12.65;5.93;;;17.30;51.80;;;;;;9178539;19;20025;-71
2022/04/19 08:35:50;;;;;;;10.63;5.53;;;17.40;51.60;;;;;;9180216;19;20047;-71
2022/04/19 08:38:58;;;;;;;10.77;6.13;;;17.50;51.40;;;;;;9178228;19;20378;-71
2022/04/19 08:42:09;;;;;;;9.18;5.38;;;17.70;51.30;;;;;;9179577;19;20015;-71
2022/04/19 08:45:26;;;;;;;11.75;5.72;;;17.80;51.10;;;;;;9180079;19;20397;-71
2022/04/19 08:48:32;;;;;;;11.40;5.70;;;17.90;51.00;;;;;;9179509;19;20047;-72
2022/04/19 08:51:44;;;;;;;16.83;5.43;;;18.10;51.00;;;;;;9180644;19;20022;-72
2022/04/19 08:58:10;;;;;;;12.80;5.35;;;18.30;50.60;;;;;;9179412;19;20023;-73
2022/04/19 09:01:15;;;;;;;6.97;4.50;;;18.40;50.60;;;;;;9178203;19;20014;-71
2022/04/19 09:04:33;;;;;;;10.90;4.82;;;18.50;50.50;;;;;;9179257;19;20371;-70
2022/04/19 09:07:44;;;;;;;13.63;4.82;;;18.60;50.40;;;;;;9178851;19;20472;-71
2022/04/19 09:10:53;;;;;;;9.63;4.45;;;18.70;50.30;;;;;;9188198;19;20015;-72
2022/04/19 09:14:10;;;;;;;12.00;4.65;;;18.80;50.20;;;;;;9189545;19;20375;-71
2022/04/19 09:17:15;;;;;;;9.02;4.93;;;18.90;50.00;;;;;;9187854;19;20074;-71
2022/04/19 09:20:22;;;;;;;8.07;4.70;;;19.00;50.00;;;;;;9188150;19;20022;-71
2022/04/19 09:23:30;;;;;;;8.70;5.28;;;19.10;49.90;;;;;;9182331;19;20463;-70
2022/04/19 09:26:45;;;;;;;24.05;5.57;;;19.20;49.90;;;;;;9190264;19;20011;-71
2022/04/19 09:29:55;;;;;;;7.63;5.05;;;19.30;49.80;;;;;;9184640;19;20086;-75
2022/04/19 09:33:11;;;;;;;7.05;4.50;;;19.40;49.70;;;;;;9187765;19;20026;-69
2022/04/19 09:36:28;;;;;;;8.63;4.30;;;19.50;49.60;;;;;;9185405;19;20378;-72
2022/04/19 09:39:37;;;;;;;9.52;3.90;;;19.60;49.40;;;;;;9188176;19;20037;-70
2022/04/19 09:42:45;;;;;;;10.32;4.50;;;19.70;49.40;;;;;;9186806;19;20014;-72
2022/04/19 09:45:55;;;;;;;6.10;4.05;;;19.70;49.20;;;;;;9187742;19;20401;-71
2022/04/19 09:49:03;;;;;;;8.15;4.38;;;19.80;49.00;;;;;;9187176;19;20018;-71
2022/04/19 09:52:08;;;;;;;15.60;4.38;;;19.80;48.90;;;;;;9188280;19;20018;-70
2022/04/19 09:55:14;;;;;;;7.47;4.28;;;19.90;49.00;;;;;;9186872;19;20018;-72
2022/04/19 09:58:23;;;;;;;9.40;3.88;;;19.90;48.80;;;;;;9186669;19;20090;-69
2022/04/19 10:08:18;;;;;;;5.18;3.17;;;20.20;48.60;;;;;;9183889;19;20021;-70
2022/04/19 10:11:34;;;;;;;4.55;2.90;;;20.20;48.30;;;;;;9187661;19;20018;-71
2022/04/19 10:14:54;;;;;;;3.53;2.63;;;20.30;48.10;;;;;;9186013;19;20014;-70
2022/04/19 10:18:07;;;;;;;9.93;3.30;;;20.30;47.90;;;;;;9185217;19;20033;-70
2022/04/19 10:21:17;;;;;;;4.72;3.13;;;20.40;47.80;;;;;;9179204;19;20523;-70
2022/04/19 10:24:27;;;;;;;5.03;2.90;;;20.40;47.70;;;;;;9181770;19;20010;-69
2022/04/19 10:27:36;;;;;;;5.30;3.45;;;20.50;47.70;;;;;;9185880;19;20011;-69
2022/04/19 10:30:53;;;;;;;4.13;2.92;;;20.40;47.40;;;;;;9183674;19;20026;-70
2022/04/19 10:34:07;;;;;;;3.63;2.78;;;20.50;47.30;;;;;;9184372;19;20006;-70
2022/04/19 10:37:24;;;;;;;6.20;3.78;;;20.50;47.20;;;;;;9185085;19;20010;-70
2022/04/19 10:40:53;;;;;;;9.55;3.10;;;20.60;47.10;;;;;;9184058;19;20591;-69
2022/04/19 10:44:38;;;;;;;4.00;2.50;;;20.60;46.70;;;;;;9183320;19;20034;-70
2022/04/19 10:48:05;;;;;;;10.63;3.50;;;20.70;46.60;;;;;;9183365;19;20014;-71
2022/04/19 10:51:34;;;;;;;7.20;3.45;;;20.70;46.40;;;;;;9184202;19;20015;-65
2022/04/19 10:55:03;;;;;;;4.50;3.28;;;20.70;46.40;;;;;;9183831;19;20022;-67
2022/04/19 10:58:20;;;;;;;3.65;2.63;;;20.70;46.30;;;;;;9185324;19;20022;-65
2022/04/19 11:01:31;;;;;;;7.47;2.85;;;20.80;46.30;;;;;;9185859;19;20938;-66
2022/04/19 11:04:39;;;;;;;3.67;2.58;;;20.70;46.00;;;;;;9183674;19;20463;-67
2022/04/19 11:07:47;;;;;;;4.70;3.03;;;20.70;45.90;;;;;;9183388;19;20014;-65
2022/04/19 11:10:53;;;;;;;8.35;2.53;;;20.80;45.80;;;;;;9183512;19;20010;-65
2022/04/19 11:14:20;;;;;;;6.05;2.15;;;20.80;45.90;;;;;;9184587;19;20025;-66
2022/04/19 11:17:30;;;;;;;5.05;2.35;;;20.80;45.50;;;;;;9184655;19;20029;-65
2022/04/19 11:20:49;;;;;;;3.85;2.45;;;20.90;45.60;;;;;;9180071;19;20044;-65
2022/04/19 11:23:57;;;;;;;4.03;2.38;;;20.80;45.30;;;;;;9182713;19;20025;-66
2022/04/19 11:27:02;;;;;;;4.22;2.30;;;20.90;45.30;;;;;;9183132;19;20467;-65
2022/04/19 11:30:14;;;;;;;7.78;2.60;;;20.90;45.00;;;;;;9185808;19;20463;-65
2022/04/19 11:33:24;;;;;;;2.97;1.90;;;20.90;44.80;;;;;;9180615;19;20014;-65
2022/04/19 11:36:29;;;;;;;7.80;2.30;;;20.90;44.60;;;;;;9184135;19;20014;-67
2022/04/19 11:49:39;;;;;;;3.80;2.78;;;20.90;44.60;;;;;;9173114;19;20406;-64
2022/04/19 11:52:44;;;;;;;4.25;2.30;;;20.90;44.40;;;;;;9168546;19;20055;-65
2022/04/19 11:56:01;;;;;;;4.70;2.78;;;20.90;44.40;;;;;;9170928;19;20337;-65
2022/04/19 11:59:05;;;;;;;2.65;2.10;;;20.90;44.20;;;;;;9167220;19;20010;-65
2022/04/19 12:02:17;;;;;;;3.60;2.33;;;20.90;44.30;;;;;;9170058;19;20474;-64
2022/04/19 12:05:27;;;;;;;4.70;1.92;;;20.90;44.10;;;;;;9168741;19;20018;-65
2022/04/19 12:08:33;;;;;;;4.53;2.28;;;21.00;44.10;;;;;;9167581;19;20022;-65
2022/04/19 12:11:43;;;;;;;7.43;2.25;;;21.00;44.10;;;;;;9165049;19;20011;-63
2022/04/19 12:14:52;;;;;;;8.18;2.00;;;21.00;43.90;;;;;;9168567;19;20508;-64
2022/04/19 12:18:01;;;;;;;8.38;2.05;;;21.10;43.80;;;;;;9167091;19;20380;-65
2022/04/19 12:21:08;;;;;;;2.15;1.40;;;21.10;43.80;;;;;;9163022;19;20023;-65
2022/04/19 12:24:23;;;;;;;2.35;1.58;;;21.10;43.80;;;;;;9168509;19;20015;-65
2022/04/19 12:27:32;;;;;;;4.40;1.13;;;21.10;43.60;;;;;;9169356;19;20019;-64
2022/04/19 12:30:48;;;;;;;5.15;1.35;;;21.10;43.50;;;;;;9169427;19;20014;-64
2022/04/19 12:33:56;;;;;;;3.03;1.40;;;21.00;43.20;;;;;;9167576;19;20034;-65
2022/04/19 12:37:08;;;;;;;1.35;1.10;;;21.00;43.30;;;;;;9168585;19;20022;-66
2022/04/19 12:40:14;;;;;;;6.68;1.40;;;21.00;43.20;;;;;;9168589;19;20349;-65
2022/04/19 12:43:21;;;;;;;2.42;1.42;;;21.00;43.10;;;;;;9168482;19;20018;-66
2022/04/19 12:46:26;;;;;;;4.50;0.93;;;21.00;43.00;;;;;;9177124;19;20018;-65
2022/04/19 12:49:33;;;;;;;1.27;0.90;;;20.90;43.00;;;;;;9174168;19;20019;-65
2022/04/19 12:52:38;;;;;;;2.35;1.15;;;20.90;42.90;;;;;;9178529;19;20014;-64
2022/04/19 12:55:43;;;;;;;1.40;1.27;;;20.90;42.80;;;;;;9178360;19;20022;-65
2022/04/19 12:58:51;;;;;;;2.55;1.13;;;20.90;42.80;;;;;;9174672;19;20025;-64
2022/04/19 13:01:56;;;;;;;4.25;0.95;;;20.90;42.70;;;;;;9177851;19;20372;-64
2022/04/19 13:05:01;;;;;;;1.95;0.80;;;20.80;42.70;;;;;;9177042;19;20486;-64
2022/04/19 13:15:00;;;;;;;3.78;1.17;;;20.80;42.60;;;;;;9172650;19;20365;-66
2022/04/19 13:18:06;;;;;;;3.63;1.00;;;20.80;42.70;;;;;;9177193;19;20019;-64
2022/04/19 13:21:11;;;;;;;1.48;0.98;;;20.80;42.60;;;;;;9171432;19;20021;-66
2022/04/19 13:24:16;;;;;;;6.47;1.23;;;20.80;42.50;;;;;;9177259;19;20802;-64
2022/04/19 13:27:21;;;;;;;4.15;1.50;;;20.80;42.40;;;;;;9178707;19;20019;-67
2022/04/19 13:30:30;;;;;;;5.32;1.00;;;20.80;42.40;;;;;;9174754;19;20014;-65
2022/04/19 13:33:35;;;;;;;2.00;0.70;;;20.70;42.30;;;;;;9175109;19;21867;-65
2022/04/19 13:36:42;;;;;;;3.00;1.20;;;20.70;42.30;;;;;;9176325;19;20018;-67
2022/04/19 13:39:47;;;;;;;4.43;1.23;;;20.70;42.20;;;;;;9175042;19;20471;-66
2022/04/19 13:42:53;;;;;;;2.22;1.08;;;20.70;42.10;;;;;;9176811;19;20026;-65
2022/04/19 13:46:01;;;;;;;4.05;1.38;;;20.60;42.00;;;;;;9173381;19;20029;-67
2022/04/19 13:49:06;;;;;;;11.00;1.70;;;20.50;42.00;;;;;;9176550;19;20021;-65
2022/04/19 13:52:11;;;;;;;2.47;1.25;;;20.50;42.00;;;;;;9178200;19;20487;-65
2022/04/19 13:55:22;;;;;;;1.45;1.10;;;20.40;42.00;;;;;;9173258;19;20063;-64
2022/04/19 13:58:27;;;;;;;3.92;1.20;;;20.50;42.10;;;;;;9174652;19;20589;-66
2022/04/19 14:01:35;;;;;;;1.52;1.20;;;20.40;42.10;;;;;;9177659;19;20022;-66
2022/04/19 14:04:40;;;;;;;3.22;1.80;;;20.40;41.90;;;;;;9171273;19;20964;-65
2022/04/19 14:07:45;;;;;;;3.17;1.40;;;20.40;41.90;;;;;;9175442;19;20022;-65
2022/04/19 14:10:50;;;;;;;2.75;1.17;;;20.30;41.90;;;;;;9179005;19;20483;-66
2022/04/19 14:13:56;;;;;;;2.67;1.10;;;20.30;41.80;;;;;;9177064;19;20018;-67
2022/04/19 14:17:03;;;;;;;3.65;1.25;;;20.30;41.80;;;;;;9175407;19;20023;-65
2022/04/19 14:20:09;;;;;;;2.08;1.30;;;20.20;41.80;;;;;;9175149;19;20055;-65
2022/04/19 14:23:17;;;;;;;2.20;1.27;;;20.20;41.90;;;;;;9170539;19;20345;-66
2022/04/19 14:26:25;;;;;;;7.13;1.30;;;20.20;41.80;;;;;;9172691;19;20725;-66
2022/04/19 14:36:08;;;;;;;2.35;1.50;;;20.20;41.70;;;;;;9177951;19;20010;-67
2022/04/19 14:39:13;;;;;;;4.32;1.40;;;20.10;41.80;;;;;;9176203;19;20025;-63
2022/04/19 14:42:18;;;;;;;4.45;1.65;;;20.00;41.70;;;;;;9175131;19;20025;-65
2022/04/19 14:45:23;;;;;;;2.60;1.48;;;20.00;41.80;;;;;;9169596;19;20022;-67
2022/04/19 14:48:31;;;;;;;2.92;1.75;;;20.00;41.80;;;;;;9175866;19;20030;-66
2022/04/19 14:54:54;;;;;;;2.78;1.40;;;19.90;41.80;;;;;;9174578;19;20022;-66
2022/04/19 14:57:59;;;;;;;5.35;1.45;;;19.90;41.80;;;;;;9175093;19;20444;-65
2022/04/19 15:01:04;;;;;;;8.65;1.88;;;19.90;41.80;;;;;;9174726;19;20025;-66
2022/04/19 15:04:12;;;;;;;3.97;1.65;;;19.90;41.70;;;;;;9172125;19;20018;-64
2022/04/19 15:07:24;;;;;;;5.63;1.92;;;19.80;41.60;;;;;;9175442;19;20041;-64
2022/04/19 15:10:31;;;;;;;3.25;1.70;;;19.80;41.60;;;;;;9174731;19;20021;-65
2022/04/19 15:13:47;;;;;;;2.45;1.52;;;19.80;41.70;;;;;;9175221;19;20018;-64
2022/04/19 15:16:54;;;;;;;3.40;1.70;;;19.80;41.70;;;;;;9171980;19;20022;-64
2022/04/19 15:20:02;;;;;;;3.22;1.75;;;19.70;41.80;;;;;;9177914;19;20025;-65
2022/04/19 15:23:08;;;;;;;1.58;1.30;;;19.70;41.60;;;;;;9173285;19;20051;-66
2022/04/19 15:26:13;;;;;;;5.13;1.60;;;19.60;41.70;;;;;;9175122;19;20479;-64
2022/04/19 15:29:18;;;;;;;2.13;1.50;;;19.60;41.70;;;;;;9180075;19;20034;-66
2022/04/19 15:32:23;;;;;;;3.50;1.80;;;19.60;41.90;;;;;;9178299;19;20011;-66
2022/04/19 15:35:30;;;;;;;5.38;1.55;;;19.50;41.80;;;;;;9177601;19;20010;-65
2022/04/19 15:38:35;;;;;;;6.68;1.90;;;19.50;41.90;;;;;;9171641;19;20014;-66
2022/04/19 15:41:40;;;;;;;3.70;1.58;;;19.40;42.00;;;;;;9168926;19;20030;-66
2022/04/19 15:44:47;;;;;;;4.13;2.00;;;19.40;42.00;;;;;;9172735;19;20022;-65
2022/04/19 15:47:52;;;;;;;4.68;1.83;;;19.40;42.10;;;;;;9172171;19;20613;-66
2022/04/19 15:51:00;;;;;;;3.80;1.80;;;19.40;42.10;;;;;;9172559;19;20038;-65
2022/04/19 15:54:05;;;;;;;2.63;1.60;;;19.40;42.10;;;;;;9169206;19;20026;-64
2022/04/19 15:57:10;;;;;;;3.60;1.73;;;19.30;42.10;;;;;;9172749;19;20022;-66
2022/04/19 16:00:16;;;;;;;8.20;1.55;;;19.30;42.20;;;;;;9175100;19;20022;-65
2022/04/19 16:03:21;;;;;;;6.75;1.60;;;19.20;42.20;;;;;;9176119;19;20022;-71
2022/04/19 16:06:35;;;;;;;6.30;1.30;;;19.20;42.20;;;;;;9173896;19;20037;-66
2022/04/19 16:09:41;;;;;;;2.78;1.67;;;19.20;42.20;;;;;;9172311;19;20014;-69
2022/04/19 16:12:50;;;;;;;2.33;1.40;;;19.10;42.20;;;;;;9177595;19;20044;-66
2022/04/19 16:23:20;;;;;;;2.78;1.38;;;19.10;42.30;;;;;;9175107;19;20076;-67
2022/04/19 16:26:02;;;;;;;2.42;1.15;;;19.00;42.30;;;;;;9169718;19;20018;-67
2022/04/19 16:29:08;;;;;;;2.05;1.30;;;18.90;42.30;;;;;;9173677;19;20006;-60
2022/04/19 16:32:14;;;;;;;3.95;1.15;;;18.80;42.20;;;;;;9180483;19;20023;-60
2022/04/19 16:35:19;;;;;;;5.13;1.67;;;18.70;42.10;;;;;;9182586;19;20458;-60
2022/04/19 16:38:27;;;;;;;4.75;1.83;;;18.60;42.30;;;;;;9180568;19;20019;-58
2022/04/19 16:41:32;;;;;;;2.70;1.45;;;18.50;43.00;;;;;;9180555;19;20494;-60
2022/04/19 16:44:37;;;;;;;5.55;1.50;;;18.40;42.50;;;;;;9179563;19;20014;-60
2022/04/19 16:47:46;;;;;;;1.73;1.20;;;18.30;42.60;;;;;;9176359;19;20022;-59
2022/04/19 16:50:51;;;;;;;2.83;1.23;;;18.20;42.60;;;;;;9178388;19;20538;-60
2022/04/19 16:53:59;;;;;;;6.63;1.58;;;18.10;42.70;;;;;;9180327;19;20046;-61
2022/04/19 16:57:04;;;;;;;2.33;1.38;;;18.10;42.90;;;;;;9177834;19;20014;-62
2022/04/19 17:00:11;;;;;;;2.08;1.65;;;18.00;42.90;;;;;;9170918;19;20609;-62
2022/04/19 17:06:35;;;;;;;8.23;1.40;;;17.80;43.00;;;;;;9169908;19;20372;-61
2022/04/19 17:09:43;;;;;;;4.20;1.77;;;17.70;43.20;;;;;;9169299;19;20495;-60
2022/04/19 17:12:48;;;;;;;4.18;1.70;;;17.60;43.30;;;;;;9172733;19;20021;-61
2022/04/19 17:15:53;;;;;;;6.40;1.80;;;17.50;43.40;;;;;;9172561;19;20019;-60
2022/04/19 17:18:59;;;;;;;4.38;2.35;;;17.40;43.50;;;;;;9173056;19;20018;-61
2022/04/19 17:22:04;;;;;;;4.00;1.70;;;17.40;43.60;;;;;;9168268;19;20663;-60
2022/04/19 17:25:13;;;;;;;4.22;1.70;;;17.30;43.70;;;;;;9174642;19;20017;-59